createdAt,value
2022-08-19T00:02:11.744Z,94200.69
2022-08-19T00:04:38.756Z,94197.75
2022-08-19T00:07:07.756Z,94196.16
2022-08-19T00:09:34.914Z,94197.44
2022-08-19T00:12:02.331Z,94188.72
2022-08-19T00:14:32.750Z,94184.06
2022-08-19T00:17:01.292Z,94185.25
2022-08-19T00:19:28.157Z,94180.81
2022-08-19T00:21:56.990Z,94175.38
2022-08-19T00:24:24.342Z,94198.91
2022-08-19T00:26:52.122Z,94204.50
2022-08-19T00:29:25.482Z,94210.16
2022-08-19T00:31:57.865Z,94225.13
2022-08-19T00:34:25.633Z,94220.00
2022-08-19T00:36:52.573Z,94213.38
2022-08-19T00:39:19.533Z,94213.50
2022-08-19T00:41:50.151Z,94210.84
2022-08-19T00:44:22.637Z,94198.22
2022-08-19T00:46:58.005Z,94185.13
2022-08-19T00:49:32.623Z,94189.66
2022-08-19T00:52:09.666Z,94203.22
2022-08-19T00:54:38.682Z,94196.72
2022-08-19T00:57:09.626Z,94197.88
2022-08-19T01:00:01.211Z,94199.25
2022-08-19T01:02:28.777Z,94197.44
2022-08-19T01:04:56.003Z,94199.97
2022-08-19T01:07:23.121Z,94204.59
2022-08-19T01:09:50.714Z,94196.03
2022-08-19T01:12:18.298Z,94207.63
2022-08-19T01:14:46.710Z,94190.47
2022-08-19T01:17:14.876Z,94198.59
2022-08-19T01:19:44.763Z,94186.06
2022-08-19T01:22:27.365Z,94193.72
2022-08-19T01:24:55.744Z,94192.56
2022-08-19T01:27:23.401Z,94199.75
2022-08-19T01:29:51.709Z,94204.59
2022-08-19T01:32:32.186Z,94196.72
2022-08-19T01:35:03.203Z,94199.41
2022-08-19T01:37:31.741Z,94191.03
2022-08-19T01:39:59.010Z,94195.34
2022-08-19T01:42:30.246Z,94192.91
2022-08-19T01:44:58.076Z,94198.81
2022-08-19T01:47:25.393Z,94199.16
2022-08-19T01:49:52.308Z,94207.75
2022-08-19T01:52:19.139Z,94205.53
2022-08-19T01:54:45.921Z,94205.53
2022-08-19T01:57:15.390Z,94203.09
2022-08-19T01:59:44.445Z,94200.56
2022-08-19T02:02:11.564Z,94202.75
2022-08-19T02:04:39.568Z,94198.69
2022-08-19T02:07:09.135Z,94198.38
2022-08-19T02:09:36.961Z,94197.63
2022-08-19T02:12:05.711Z,94176.75
2022-08-19T02:14:35.221Z,94172.47
2022-08-19T02:17:02.166Z,94185.34
2022-08-19T02:19:29.045Z,94181.41
2022-08-19T02:21:55.822Z,94182.78
2022-08-19T02:24:22.663Z,94186.72
2022-08-19T02:26:49.433Z,94181.84
2022-08-19T02:29:16.386Z,94196.91
2022-08-19T02:31:43.470Z,94182.69
2022-08-19T02:34:10.317Z,94189.16
2022-08-19T02:36:37.230Z,94185.94
2022-08-19T02:39:10.075Z,94183.56
2022-08-19T02:41:36.955Z,94174.75
2022-08-19T02:44:28.618Z,94178.59
2022-08-19T02:46:52.516Z,94181.59
2022-08-19T02:49:20.869Z,94198.88
2022-08-19T02:51:48.560Z,94191.00
2022-08-19T02:54:16.301Z,94187.88
2022-08-19T02:56:45.290Z,94187.88
2022-08-19T02:59:13.259Z,94174.09
2022-08-19T03:01:42.404Z,94172.03
2022-08-19T03:04:13.992Z,94171.66
2022-08-19T03:06:44.244Z,94173.41
2022-08-19T03:09:12.381Z,94152.28
2022-08-19T03:11:39.922Z,94171.91
2022-08-19T03:14:09.498Z,94168.06
2022-08-19T03:16:47.169Z,94170.72
2022-08-19T03:19:16.380Z,94180.00
2022-08-19T03:21:45.667Z,94196.31
2022-08-19T03:24:14.162Z,94179.16
2022-08-19T03:26:52.247Z,94186.22
2022-08-19T03:29:30.868Z,94190.63
2022-08-19T03:32:06.134Z,94191.56
2022-08-19T03:34:35.690Z,94200.44
2022-08-19T03:37:10.186Z,94187.81
2022-08-19T03:39:40.372Z,94204.16
2022-08-19T03:42:32.361Z,94198.38
2022-08-19T03:44:54.433Z,94196.53
2022-08-19T03:47:21.218Z,94184.38
2022-08-19T03:49:48.209Z,94194.00
2022-08-19T03:52:15.310Z,94182.16
2022-08-19T03:54:42.233Z,94184.16
2022-08-19T03:57:10.048Z,94187.59
2022-08-19T03:59:38.881Z,94178.22
2022-08-19T04:02:11.603Z,94171.03
2022-08-19T04:04:41.982Z,94173.81
2022-08-19T04:07:10.661Z,94173.81
2022-08-19T04:09:38.105Z,94161.22
2022-08-19T04:12:06.637Z,94159.81
2022-08-19T04:14:34.914Z,94163.88
2022-08-19T04:17:06.006Z,94174.66
2022-08-19T04:19:36.016Z,94175.09
2022-08-19T04:22:04.038Z,94165.22
2022-08-19T04:24:31.189Z,94167.31
2022-08-19T04:26:58.065Z,94184.94
2022-08-19T04:29:27.904Z,94174.72
2022-08-19T04:31:57.024Z,94189.78
2022-08-19T04:34:28.211Z,94188.75
2022-08-19T04:36:58.168Z,94188.97
2022-08-19T04:39:49.956Z,94190.38
2022-08-19T04:42:38.020Z,94195.09
2022-08-19T04:45:09.513Z,94188.16
2022-08-19T04:47:49.103Z,94187.00
2022-08-19T04:50:27.736Z,94183.41
2022-08-19T04:52:56.625Z,94187.69
2022-08-19T04:55:26.743Z,94199.25
2022-08-19T04:57:55.391Z,94214.19
2022-08-19T05:00:22.370Z,94228.84
2022-08-19T05:02:50.354Z,94231.75
2022-08-19T05:05:18.036Z,94233.50
2022-08-19T05:07:44.805Z,94227.72
2022-08-19T05:10:11.589Z,94237.72
2022-08-19T05:12:38.975Z,94238.06
2022-08-19T05:15:09.659Z,94247.91
2022-08-19T05:17:38.966Z,94238.63
2022-08-19T05:20:26.555Z,94250.00
2022-08-19T05:22:53.810Z,94243.50
2022-08-19T05:25:22.808Z,94257.31
2022-08-19T05:27:49.858Z,94239.19
2022-08-19T05:30:18.049Z,94237.41
2022-08-19T05:32:45.760Z,94242.75
2022-08-19T05:35:12.917Z,94242.25
2022-08-19T05:37:43.536Z,94246.09
2022-08-19T05:40:11.466Z,94251.66
2022-08-19T05:42:38.973Z,94232.34
2022-08-19T05:45:06.728Z,94250.25
2022-08-19T05:47:33.526Z,94242.16
2022-08-19T05:50:02.890Z,94253.44
2022-08-19T05:52:32.138Z,94249.34
2022-08-19T05:54:58.913Z,94254.94
2022-08-19T05:57:25.936Z,94252.75
2022-08-19T05:59:58.642Z,94251.00
2022-08-19T06:02:29.896Z,94254.81
2022-08-19T06:04:56.884Z,94246.91
2022-08-19T06:07:24.020Z,94251.34
2022-08-19T06:10:00.075Z,94254.94
2022-08-19T06:12:35.526Z,94246.34
2022-08-19T06:15:11.378Z,94245.19
2022-08-19T06:17:39.288Z,94255.75
2022-08-19T06:20:11.047Z,94260.38
2022-08-19T06:22:51.000Z,94259.09
2022-08-19T06:25:19.026Z,94249.72
2022-08-19T06:28:13.542Z,94252.50
2022-08-19T06:30:33.644Z,94262.00
2022-08-19T06:33:00.610Z,94254.59
2022-08-19T06:35:28.011Z,94266.66
2022-08-19T06:37:55.191Z,94256.19
2022-08-19T06:40:22.409Z,94258.66
2022-08-19T06:42:54.881Z,94266.19
2022-08-19T06:45:24.526Z,94269.66
2022-08-19T06:47:55.416Z,94274.19
2022-08-19T06:50:25.666Z,94272.22
2022-08-19T06:52:53.430Z,94255.66
2022-08-19T06:55:20.924Z,94261.66
2022-08-19T06:57:49.270Z,94265.28
2022-08-19T07:00:17.091Z,94261.31
2022-08-19T07:02:49.680Z,94267.09
2022-08-19T07:05:23.034Z,94274.41
2022-08-19T07:07:49.901Z,94260.91
2022-08-19T07:10:18.253Z,94265.78
2022-08-19T07:12:45.478Z,94267.53
2022-08-19T07:15:13.257Z,94265.09
2022-08-19T07:17:41.837Z,94263.50
2022-08-19T07:20:11.007Z,94259.00
2022-08-19T07:22:41.353Z,94270.00
2022-08-19T07:25:10.441Z,94265.88
2022-08-19T07:27:38.167Z,94271.50
2022-08-19T07:30:12.093Z,94270.31
2022-08-19T07:32:40.101Z,94267.38
2022-08-19T07:35:08.448Z,94255.94
2022-08-19T07:37:36.612Z,94273.56
2022-08-19T07:40:06.900Z,94268.66
2022-08-19T07:42:33.897Z,94276.69
2022-08-19T07:45:00.723Z,94283.41
2022-08-19T07:47:47.469Z,94280.03
2022-08-19T07:50:17.084Z,94283.97
2022-08-19T07:52:45.728Z,94280.16
2022-08-19T07:55:41.549Z,94284.81
2022-08-19T07:58:11.577Z,94281.91
2022-08-19T08:00:39.309Z,94284.81
2022-08-19T08:03:06.149Z,94283.72
2022-08-19T08:05:51.332Z,94269.34
2022-08-19T08:08:36.674Z,94276.31
2022-08-19T08:11:07.645Z,94277.47
2022-08-19T08:13:36.346Z,94287.81
2022-08-19T08:16:10.228Z,94288.16
2022-08-19T08:18:43.293Z,94276.09
2022-08-19T08:21:17.156Z,94285.53
2022-08-19T08:23:43.978Z,94287.19
2022-08-19T08:26:10.787Z,94281.13
2022-08-19T08:28:39.785Z,94288.16
2022-08-19T08:31:09.642Z,94291.91
2022-08-19T08:33:36.696Z,94289.84
2022-08-19T08:36:06.561Z,94300.00
2022-08-19T08:38:39.863Z,94303.25
2022-08-19T08:41:41.594Z,94305.53
2022-08-19T08:44:20.069Z,94307.75
2022-08-19T08:46:55.058Z,94313.81
2022-08-19T08:49:34.775Z,94309.38
2022-08-19T08:52:18.595Z,94313.53
2022-08-19T08:54:55.001Z,94305.59
2022-08-19T08:57:41.242Z,94325.09
2022-08-19T09:00:17.597Z,94324.66
2022-08-19T09:02:50.965Z,94320.13
2022-08-19T09:05:26.052Z,94318.06
2022-08-19T09:08:06.889Z,94322.59
2022-08-19T09:10:55.701Z,94320.03
2022-08-19T09:14:35.022Z,94326.28
2022-08-19T09:17:00.633Z,94313.53
2022-08-19T09:19:27.381Z,94316.94
2022-08-19T09:21:56.348Z,94319.47
2022-08-19T09:24:23.723Z,94316.94
2022-08-19T09:26:57.914Z,94319.97
2022-08-19T09:29:25.685Z,94326.44
2022-08-19T09:31:52.539Z,94321.97
2022-08-19T09:34:22.146Z,94320.31
2022-08-19T09:36:54.622Z,94313.69
2022-08-19T09:39:23.051Z,94313.56
2022-08-19T09:41:51.079Z,94317.50
2022-08-19T09:44:18.971Z,94328.59
2022-08-19T09:46:48.139Z,94319.47
2022-08-19T09:49:16.757Z,94335.47
2022-08-19T09:51:50.890Z,94331.34
2022-08-19T09:54:23.661Z,94333.34
2022-08-19T09:56:53.454Z,94334.16
2022-08-19T09:59:20.409Z,94341.63
2022-08-19T10:01:47.578Z,94345.97
2022-08-19T10:04:20.203Z,94353.38
2022-08-19T10:06:51.787Z,94349.78
2022-08-19T10:09:26.374Z,94345.22
2022-08-19T10:12:03.778Z,94354.97
2022-08-19T10:14:31.574Z,94350.38
2022-08-19T10:16:59.106Z,94354.38
2022-08-19T10:19:26.571Z,94355.09
2022-08-19T10:21:58.570Z,94359.13
2022-08-19T10:24:29.101Z,94363.09
2022-08-19T10:26:58.736Z,94367.03
2022-08-19T10:29:31.966Z,94364.50
2022-08-19T10:32:09.774Z,94369.09
2022-08-19T10:34:48.753Z,94360.69
2022-08-19T10:37:28.840Z,94360.34
2022-08-19T10:39:56.312Z,94363.16
2022-08-19T10:42:23.222Z,94368.97
2022-08-19T10:44:50.014Z,94371.59
2022-08-19T10:47:25.927Z,94371.50
2022-08-19T10:50:15.103Z,94376.69
2022-08-19T10:52:49.102Z,94379.34
2022-08-19T10:55:39.220Z,94371.91
2022-08-19T10:58:16.831Z,94385.50
2022-08-19T11:00:44.906Z,94385.16
2022-08-19T11:03:11.954Z,94381.09
2022-08-19T11:05:40.561Z,94388.34
2022-08-19T11:08:22.550Z,94380.13
2022-08-19T11:10:57.897Z,94382.31
2022-08-19T11:13:25.673Z,94391.69
2022-08-19T11:16:07.635Z,94394.03
2022-08-19T11:18:49.990Z,94381.50
2022-08-19T11:21:22.910Z,94399.03
2022-08-19T11:23:53.121Z,94386.38
2022-08-19T11:26:22.309Z,94391.94
2022-08-19T11:28:52.630Z,94394.03
2022-08-19T11:31:22.828Z,94394.84
2022-08-19T11:33:53.531Z,94393.56
2022-08-19T11:36:23.260Z,94398.88
2022-08-19T11:38:51.137Z,94398.81
2022-08-19T11:41:22.072Z,94393.69
2022-08-19T11:43:48.933Z,94392.75
2022-08-19T11:46:17.634Z,94396.59
2022-08-19T11:48:45.710Z,94400.06
2022-08-19T11:51:17.521Z,94401.06
2022-08-19T11:53:44.301Z,94398.88
2022-08-19T11:56:11.446Z,94415.00
2022-08-19T11:58:39.734Z,94416.34
2022-08-19T12:01:12.354Z,94416.00
2022-08-19T12:03:40.520Z,94411.53
2022-08-19T12:06:14.780Z,94413.50
2022-08-19T12:08:43.366Z,94414.19
2022-08-19T12:11:11.567Z,94410.56
2022-08-19T12:13:40.025Z,94411.75
2022-08-19T12:16:21.236Z,94404.78
2022-08-19T12:18:48.630Z,94403.25
2022-08-19T12:21:22.782Z,94405.25
2022-08-19T12:23:55.218Z,94410.34
2022-08-19T12:26:22.719Z,94408.34
2022-08-19T12:28:49.562Z,94410.19
2022-08-19T12:31:17.462Z,94410.19
2022-08-19T12:33:44.645Z,94410.56
2022-08-19T12:36:13.921Z,94414.41
2022-08-19T12:38:41.324Z,94413.03
2022-08-19T12:41:13.246Z,94414.56
2022-08-19T12:43:40.024Z,94418.91
2022-08-19T12:46:07.434Z,94411.59
2022-08-19T12:48:38.593Z,94420.59
2022-08-19T12:51:14.265Z,94426.31
2022-08-19T12:53:41.796Z,94420.69
2022-08-19T12:56:12.354Z,94412.56
2022-08-19T12:58:40.324Z,94428.22
2022-08-19T13:01:10.182Z,94423.50
2022-08-19T13:03:40.635Z,94431.22
2022-08-19T13:06:09.056Z,94431.81
2022-08-19T13:08:39.693Z,94441.06
2022-08-19T13:11:16.182Z,94445.50
2022-08-19T13:13:45.181Z,94441.72
2022-08-19T13:16:13.889Z,94437.03
2022-08-19T13:18:43.251Z,94437.41
2022-08-19T13:21:14.243Z,94444.09
2022-08-19T13:23:41.979Z,94447.72
2022-08-19T13:26:11.405Z,94449.78
2022-08-19T13:28:56.927Z,94452.31
2022-08-19T13:31:45.558Z,94443.03
2022-08-19T13:34:12.960Z,94438.53
2022-08-19T13:36:40.208Z,94448.53
2022-08-19T13:39:09.508Z,94459.00
2022-08-19T13:41:37.225Z,94451.56
2022-08-19T13:44:07.401Z,94449.34
2022-08-19T13:46:34.217Z,94457.47
2022-08-19T13:49:01.153Z,94448.06
2022-08-19T13:51:28.179Z,94449.91
2022-08-19T13:53:56.394Z,94443.19
2022-08-19T13:56:26.264Z,94439.63
2022-08-19T13:58:54.496Z,94444.06
2022-08-19T14:01:25.578Z,94444.78
2022-08-19T14:03:52.472Z,94428.66
2022-08-19T14:06:19.887Z,94438.78
2022-08-19T14:08:47.294Z,94437.97
2022-08-19T14:11:14.849Z,94438.88
2022-08-19T14:13:41.647Z,94446.44
2022-08-19T14:16:14.102Z,94452.94
2022-08-19T14:18:41.820Z,94444.34
2022-08-19T14:21:18.587Z,94455.38
2022-08-19T14:23:46.159Z,94440.56
2022-08-19T14:26:17.201Z,94440.56
2022-08-19T14:28:45.611Z,94448.34
2022-08-19T14:31:17.750Z,94435.50
2022-08-19T14:33:44.518Z,94453.50
2022-08-19T14:36:11.313Z,94448.31
2022-08-19T14:38:38.117Z,94445.91
2022-08-19T14:41:23.345Z,94444.97
2022-08-19T14:43:53.252Z,94440.81
2022-08-19T14:46:28.108Z,94449.22
2022-08-19T14:48:57.422Z,94440.47
2022-08-19T14:51:27.815Z,94446.59
2022-08-19T14:53:55.950Z,94437.56
2022-08-19T14:56:26.689Z,94435.03
2022-08-19T14:58:53.685Z,94426.75
2022-08-19T15:01:23.715Z,94435.81
2022-08-19T15:03:54.010Z,94436.72
2022-08-19T15:06:22.619Z,94437.66
2022-08-19T15:08:51.885Z,94429.63
2022-08-19T15:11:23.681Z,94444.53
2022-08-19T15:13:51.257Z,94444.69
2022-08-19T15:16:19.251Z,94448.97
2022-08-19T15:18:50.821Z,94449.06
2022-08-19T15:21:26.888Z,94454.44
2022-08-19T15:23:57.268Z,94450.44
2022-08-19T15:26:26.230Z,94448.09
2022-08-19T15:28:53.178Z,94447.78
2022-08-19T15:31:25.247Z,94453.44
2022-08-19T15:34:00.298Z,94456.56
2022-08-19T15:36:30.507Z,94452.84
2022-08-19T15:38:57.623Z,94452.31
2022-08-19T15:41:29.473Z,94457.22
2022-08-19T15:44:09.053Z,94456.88
2022-08-19T15:46:39.752Z,94453.63
2022-08-19T15:49:08.101Z,94461.41
2022-08-19T15:51:36.291Z,94460.50
2022-08-19T15:54:08.430Z,94466.66
2022-08-19T15:56:57.704Z,94460.25
2022-08-19T15:59:47.219Z,94460.03
2022-08-19T16:02:35.243Z,94461.50
2022-08-19T16:05:25.318Z,94471.16
2022-08-19T16:07:52.226Z,94464.84
2022-08-19T16:10:26.604Z,94457.78
2022-08-19T16:12:58.226Z,94475.09
2022-08-19T16:15:28.186Z,94470.00
2022-08-19T16:17:59.123Z,94479.06
2022-08-19T16:20:27.858Z,94477.72
2022-08-19T16:22:58.302Z,94465.41
2022-08-19T16:25:28.584Z,94474.25
2022-08-19T16:28:06.431Z,94486.44
2022-08-19T16:30:37.444Z,94480.41
2022-08-19T16:33:04.404Z,94474.25
2022-08-19T16:35:31.181Z,94484.91
2022-08-19T16:37:57.986Z,94475.50
2022-08-19T16:40:25.222Z,94479.69
2022-08-19T16:42:53.691Z,94485.38
2022-08-19T16:45:22.062Z,94469.94
2022-08-19T16:47:48.963Z,94486.06
2022-08-19T16:50:21.987Z,94489.81
2022-08-19T16:52:52.125Z,94489.69
2022-08-19T16:55:19.115Z,94483.91
2022-08-19T16:57:45.906Z,94501.75
2022-08-19T17:00:14.099Z,94480.41
2022-08-19T17:02:40.879Z,94506.19
2022-08-19T17:05:10.191Z,94507.09
2022-08-19T17:07:36.999Z,94499.91
2022-08-19T17:10:05.346Z,94499.19
2022-08-19T17:12:32.661Z,94502.56
2022-08-19T17:15:01.723Z,94510.25
2022-08-19T17:17:29.863Z,94503.84
2022-08-19T17:19:59.300Z,94505.94
2022-08-19T17:22:27.107Z,94510.44
2022-08-19T17:24:54.023Z,94507.81
2022-08-19T17:27:26.313Z,94503.56
2022-08-19T17:29:53.253Z,94507.09
2022-08-19T17:32:25.117Z,94506.75
2022-08-19T17:34:54.306Z,94518.75
2022-08-19T17:37:21.350Z,94511.81
2022-08-19T17:39:48.159Z,94517.59
2022-08-19T17:42:15.091Z,94509.53
2022-08-19T17:44:42.258Z,94517.00
2022-08-19T17:47:13.109Z,94524.56
2022-08-19T17:49:40.009Z,94507.00
2022-08-19T17:52:09.908Z,94520.94
2022-08-19T17:54:37.373Z,94513.88
2022-08-19T17:57:04.369Z,94521.41
2022-08-19T17:59:31.222Z,94521.06
2022-08-19T18:02:00.064Z,94529.06
2022-08-19T18:04:27.124Z,94518.59
2022-08-19T18:06:55.767Z,94524.47
2022-08-19T18:09:38.618Z,94531.78
2022-08-19T18:12:10.894Z,94531.41
2022-08-19T18:14:39.522Z,94536.88
2022-08-19T18:17:12.955Z,94543.84
2022-08-19T18:19:43.333Z,94543.41
2022-08-19T18:22:42.268Z,94534.75
2022-08-19T18:25:19.338Z,94535.13
2022-08-19T18:27:47.696Z,94537.56
2022-08-19T18:30:15.733Z,94546.38
2022-08-19T18:32:44.206Z,94546.03
2022-08-19T18:35:23.033Z,94544.31
2022-08-19T18:37:49.903Z,94554.25
2022-08-19T18:40:39.885Z,94547.28
2022-08-19T18:43:25.994Z,94554.97
2022-08-19T18:46:11.660Z,94553.06
2022-08-19T18:48:57.678Z,94561.13
2022-08-19T18:51:28.579Z,94561.25
2022-08-19T18:53:58.929Z,94561.94
2022-08-19T18:56:29.369Z,94561.13
2022-08-19T18:58:59.016Z,94564.09
2022-08-19T19:01:39.613Z,94563.13
2022-08-19T19:04:13.338Z,94572.88
2022-08-19T19:06:42.708Z,94571.28
2022-08-19T19:09:17.709Z,94573.69
2022-08-19T19:11:50.414Z,94578.91
2022-08-19T19:14:48.326Z,94579.56
2022-08-19T19:17:15.529Z,94583.63
2022-08-19T19:19:44.117Z,94581.34
2022-08-19T19:22:19.950Z,94574.59
2022-08-19T19:24:46.902Z,94586.59
2022-08-19T19:27:18.694Z,94585.78
2022-08-19T19:29:48.504Z,94590.66
2022-08-19T19:32:27.642Z,94586.22
2022-08-19T19:34:54.717Z,94590.28
2022-08-19T19:37:22.644Z,94596.44
2022-08-19T19:39:49.531Z,94597.31
2022-08-19T19:42:21.324Z,94599.69
2022-08-19T19:44:51.266Z,94604.00
2022-08-19T19:47:19.369Z,94594.22
2022-08-19T19:52:41.020Z,94587.19
2022-08-19T19:55:09.654Z,94603.75
2022-08-19T19:57:37.500Z,94602.53
2022-08-19T20:00:08.510Z,94600.94
2022-08-19T20:02:35.289Z,94607.69
2022-08-19T20:05:02.132Z,94614.25
2022-08-19T20:07:47.537Z,94621.28
2022-08-19T20:10:14.336Z,94622.81
2022-08-19T20:12:41.133Z,94621.25
2022-08-19T20:15:09.217Z,94628.16
2022-08-19T20:17:41.354Z,94629.66
2022-08-19T20:20:14.088Z,94641.50
2022-08-19T20:22:43.224Z,94639.88
2022-08-19T20:25:17.642Z,94641.09
2022-08-19T20:27:49.122Z,94639.00
2022-08-19T20:30:20.028Z,94632.03
2022-08-19T20:32:49.131Z,94631.63
2022-08-19T20:35:21.215Z,94633.47
2022-08-19T20:37:49.473Z,94638.06
2022-08-19T20:40:21.662Z,94630.81
2022-08-19T20:42:49.834Z,94637.16
2022-08-19T20:45:32.411Z,94637.81
2022-08-19T20:48:02.991Z,94634.09
2022-08-19T20:50:35.344Z,94638.56
2022-08-19T20:53:14.370Z,94635.59
2022-08-19T20:55:45.322Z,94622.66
2022-08-19T20:58:13.594Z,94625.53
2022-08-19T21:00:44.007Z,94622.44
2022-08-19T21:03:11.159Z,94621.25
2022-08-19T21:05:38.143Z,94620.97
2022-08-19T21:08:05.313Z,94632.81
2022-08-19T21:10:33.034Z,94630.44
2022-08-19T21:12:59.794Z,94634.09
2022-08-19T21:15:26.621Z,94628.94
2022-08-19T21:17:53.422Z,94631.16
2022-08-19T21:20:20.267Z,94639.81
2022-08-19T21:22:47.066Z,94638.22
2022-08-19T21:25:14.006Z,94644.94
2022-08-19T21:27:40.778Z,94637.38
2022-08-19T21:30:09.090Z,94630.44
2022-08-19T21:32:36.710Z,94635.38
2022-08-19T21:35:04.370Z,94644.75
2022-08-19T21:37:33.714Z,94634.75
2022-08-19T21:40:00.815Z,94645.06
2022-08-19T21:42:27.609Z,94653.97
2022-08-19T21:44:54.416Z,94656.84
2022-08-19T21:47:21.177Z,94653.75
2022-08-19T21:49:47.950Z,94655.00
2022-08-19T21:52:25.042Z,94651.44
2022-08-19T21:54:52.056Z,94654.34
2022-08-19T21:57:19.234Z,94649.66
2022-08-19T21:59:46.203Z,94653.53
2022-08-19T22:02:21.585Z,94651.53
2022-08-19T22:04:51.530Z,94655.31
2022-08-19T22:07:20.250Z,94645.88
2022-08-19T22:09:49.596Z,94662.59
2022-08-19T22:12:27.023Z,94618.94
2022-08-19T22:14:55.133Z,94660.16
2022-08-19T22:17:23.476Z,94659.50
2022-08-19T22:19:52.573Z,94663.78
2022-08-19T22:22:26.510Z,94660.31
2022-08-19T22:24:59.256Z,94650.00
2022-08-19T22:27:26.295Z,94662.38
2022-08-19T22:29:53.358Z,94651.72
2022-08-19T22:32:28.462Z,94659.06
2022-08-19T22:34:58.987Z,94654.94
2022-08-19T22:37:29.499Z,94665.13
2022-08-19T22:39:56.471Z,94663.47
2022-08-19T22:42:23.548Z,94658.53
2022-08-19T22:44:50.382Z,94663.03
2022-08-19T22:47:18.326Z,94659.44
2022-08-19T22:49:45.413Z,94663.50
2022-08-19T22:52:17.834Z,94661.25
2022-08-19T22:54:51.046Z,94656.44
2022-08-19T22:57:22.287Z,94658.69
2022-08-19T22:59:51.436Z,94651.94
2022-08-19T23:02:39.272Z,94657.13
2022-08-19T23:05:22.136Z,94658.91
2022-08-19T23:07:52.658Z,94656.66
2022-08-19T23:10:27.521Z,94649.06
2022-08-19T23:12:57.905Z,94645.59
2022-08-19T23:15:31.391Z,94649.44
2022-08-19T23:18:01.737Z,94644.53
2022-08-19T23:20:34.103Z,94652.53
2022-08-19T23:23:05.967Z,94645.53
2022-08-19T23:25:35.098Z,94649.44
2022-08-19T23:28:21.400Z,94638.88
2022-08-19T23:30:50.294Z,94653.38
2022-08-19T23:33:50.880Z,94647.06
2022-08-19T23:36:18.653Z,94647.34
2022-08-19T23:38:49.121Z,94647.13
2022-08-19T23:41:19.267Z,94644.69
2022-08-19T23:43:46.913Z,94651.88
2022-08-19T23:46:28.255Z,94646.72
2022-08-19T23:48:56.842Z,94643.88
2022-08-19T23:51:26.762Z,94644.56
2022-08-19T23:53:53.889Z,94647.66
2022-08-19T23:56:21.569Z,94637.44
2022-08-19T23:58:49.201Z,94652.78
